Time;durP1;ratioP1;P1;durP2;ratioP2;P2;SDS_P1;SDS_P2;PMS_P1;PMS_P2;Temp;Humidity;BMP_temperature;BMP_pressure;BME280_temperature;BME280_humidity;BME280_pressure;Samples;Min_cycle;Max_cycle;Signal;HPM_P1;HPM_P2
2021/10/30 05:22:27;;;;;;;2.63;1.57;;;12.90;99.90;;;;;;4214700;23;20235;-73
2021/10/30 05:24:54;;;;;;;2.93;1.70;;;12.80;99.90;;;;;;4953688;29;20223;-73
2021/10/30 05:27:21;;;;;;;3.53;1.50;;;12.70;99.90;;;;;;4956114;28;20208;-72
2021/10/30 05:29:47;;;;;;;2.37;1.60;;;12.90;99.90;;;;;;4955727;29;20234;-75
2021/10/30 05:32:14;;;;;;;2.47;1.60;;;12.80;99.90;;;;;;4951603;28;20212;-76
2021/10/30 05:34:41;;;;;;;3.03;1.40;;;12.90;99.90;;;;;;4955806;29;20235;-77
2021/10/30 05:37:08;;;;;;;1.97;1.47;;;12.80;99.90;;;;;;4964591;28;20207;-73
2021/10/30 05:39:37;;;;;;;3.93;1.50;;;12.90;99.90;;;;;;4974774;28;20232;-72
2021/10/30 05:42:05;;;;;;;3.10;1.70;;;12.90;99.90;;;;;;4975329;28;20211;-73
2021/10/30 05:44:33;;;;;;;3.10;1.73;;;13.10;99.90;;;;;;4975209;28;20207;-73
2021/10/30 05:47:00;;;;;;;3.50;1.70;;;13.00;99.90;;;;;;4974930;28;20209;-72
2021/10/30 05:49:27;;;;;;;2.87;1.93;;;13.00;99.90;;;;;;4974741;28;20322;-72
2021/10/30 05:51:54;;;;;;;2.50;1.50;;;12.90;99.90;;;;;;4975040;28;20293;-72
2021/10/30 05:54:21;;;;;;;3.50;1.37;;;12.90;99.90;;;;;;4974678;28;20219;-72
2021/10/30 05:56:49;;;;;;;3.63;1.30;;;12.90;99.90;;;;;;4974890;28;20209;-72
2021/10/30 05:59:16;;;;;;;2.63;1.77;;;12.90;99.90;;;;;;4974991;28;20223;-72
2021/10/30 06:01:42;;;;;;;2.00;1.40;;;13.00;99.90;;;;;;4974731;28;20695;-72
2021/10/30 06:04:09;;;;;;;2.03;1.70;;;12.90;99.90;;;;;;4974689;28;20215;-72
2021/10/30 06:06:36;;;;;;;3.30;1.80;;;13.00;99.90;;;;;;4974926;28;20211;-72
2021/10/30 06:09:03;;;;;;;3.07;2.00;;;13.00;99.90;;;;;;4974701;28;20241;-72
2021/10/30 06:11:30;;;;;;;3.73;1.50;;;13.00;99.90;;;;;;4974751;28;20292;-72
2021/10/30 06:13:58;;;;;;;2.93;1.60;;;13.00;99.90;;;;;;4974529;28;20215;-72
2021/10/30 06:16:26;;;;;;;3.13;1.70;;;13.00;99.90;;;;;;4974907;28;20587;-72
2021/10/30 06:18:52;;;;;;;3.03;1.43;;;13.00;99.90;;;;;;4974577;28;20301;-72
2021/10/30 16:35:48;;;;;;;2.80;1.00;;;14.30;99.90;;;;;;4916215;29;20287;-73
2021/10/30 16:38:15;;;;;;;1.90;1.03;;;14.20;99.90;;;;;;4917783;29;20216;-73
2021/10/30 16:40:43;;;;;;;1.90;1.20;;;14.20;99.90;;;;;;4917143;29;20320;-73
2021/10/30 16:43:10;;;;;;;2.53;1.20;;;14.20;99.90;;;;;;4917781;29;20206;-73
2021/10/30 16:45:37;;;;;;;2.67;0.93;;;14.20;99.90;;;;;;4918510;29;20205;-73
2021/10/30 16:48:05;;;;;;;2.07;0.90;;;14.20;99.90;;;;;;4918576;29;20213;-73
2021/10/30 16:50:31;;;;;;;2.37;0.93;;;14.20;99.90;;;;;;4918416;29;20233;-73
2021/10/30 16:53:00;;;;;;;1.40;0.90;;;14.20;99.90;;;;;;4918443;29;20219;-73
2021/10/30 16:55:28;;;;;;;3.20;1.00;;;14.00;99.90;;;;;;4918372;29;20229;-74
2021/10/30 16:57:55;;;;;;;1.17;0.73;;;13.80;99.90;;;;;;4918737;29;20249;-74
2021/10/30 17:00:22;;;;;;;1.10;0.70;;;13.70;99.90;;;;;;4918319;29;20350;-74
2021/10/30 17:02:49;;;;;;;1.57;1.07;;;13.70;99.90;;;;;;4918036;29;20209;-74
2021/10/30 17:05:16;;;;;;;1.50;0.80;;;13.70;99.90;;;;;;4918589;29;20213;-73
2021/10/30 17:07:43;;;;;;;1.03;0.80;;;13.80;99.90;;;;;;4917937;29;20261;-73
2021/10/30 17:10:11;;;;;;;2.03;1.10;;;13.80;99.90;;;;;;4918001;29;20544;-73
2021/10/30 17:12:39;;;;;;;2.47;1.10;;;13.80;99.90;;;;;;4917976;29;20209;-73
2021/10/30 17:15:06;;;;;;;1.90;1.03;;;13.80;99.90;;;;;;4917226;29;20216;-71
2021/10/30 17:17:33;;;;;;;3.57;1.00;;;13.80;99.90;;;;;;4917796;29;20221;-72
2021/10/30 17:20:00;;;;;;;2.90;1.10;;;13.90;99.90;;;;;;4913989;29;20202;-73
2021/10/30 17:22:27;;;;;;;1.77;0.93;;;13.80;99.90;;;;;;4903042;29;20286;-74
2021/10/30 17:24:54;;;;;;;1.80;0.90;;;13.90;99.90;;;;;;4898545;29;20292;-73
2021/10/30 17:27:22;;;;;;;1.87;1.10;;;13.90;99.90;;;;;;4896862;29;20713;-72
2021/10/30 17:29:49;;;;;;;1.40;0.90;;;13.80;99.90;;;;;;4898413;29;20217;-73
2021/10/30 17:32:16;;;;;;;3.73;1.30;;;13.80;99.90;;;;;;4898672;29;20320;-73
2021/10/30 17:34:43;;;;;;;4.03;1.10;;;13.80;99.90;;;;;;4898808;29;20229;-73
2021/10/30 17:37:12;;;;;;;2.87;1.03;;;13.90;99.90;;;;;;4898723;29;20360;-73
2021/10/30 17:39:40;;;;;;;2.23;1.40;;;13.90;99.90;;;;;;4898850;29;20571;-73
2021/10/30 17:42:08;;;;;;;3.63;2.10;;;13.80;99.90;;;;;;4898457;29;20321;-73
2021/10/30 17:44:36;;;;;;;4.33;2.73;;;13.80;99.90;;;;;;4899002;29;20206;-73
2021/10/30 17:47:03;;;;;;;3.30;1.53;;;13.80;99.90;;;;;;4899169;29;20225;-72
2021/10/30 17:49:30;;;;;;;3.13;2.17;;;13.80;99.90;;;;;;4898940;29;20297;-73
2021/10/30 17:51:57;;;;;;;4.47;1.80;;;13.80;99.90;;;;;;4898702;29;20230;-73
2021/10/30 17:54:24;;;;;;;3.07;1.73;;;13.80;99.90;;;;;;4898268;29;20214;-72
2021/10/30 17:56:51;;;;;;;3.40;1.43;;;13.80;99.90;;;;;;4905542;29;20241;-73
2021/10/30 17:59:18;;;;;;;6.10;1.97;;;13.90;99.90;;;;;;4903298;29;20210;-73
2021/10/30 18:01:47;;;;;;;3.33;1.57;;;13.90;99.90;;;;;;4898422;29;20237;-73
2021/10/30 18:04:14;;;;;;;3.37;1.80;;;13.90;99.90;;;;;;4898471;29;20214;-73
2021/10/30 18:06:41;;;;;;;3.63;2.33;;;13.80;99.90;;;;;;4906946;29;20202;-73
2021/10/30 18:09:08;;;;;;;3.80;1.87;;;13.70;99.90;;;;;;4910513;29;20216;-72
2021/10/30 18:11:35;;;;;;;4.13;2.10;;;13.60;99.90;;;;;;4915773;29;20226;-76
2021/10/30 18:14:02;;;;;;;3.40;2.07;;;13.50;99.90;;;;;;4916023;29;20248;-73
2021/10/30 18:16:30;;;;;;;4.87;2.13;;;13.40;99.90;;;;;;4915364;29;20793;-73
2021/10/30 18:18:58;;;;;;;4.97;2.77;;;13.20;99.90;;;;;;4915899;29;20221;-72
2021/10/30 18:21:25;;;;;;;5.93;2.73;;;13.20;99.90;;;;;;4916317;29;20230;-72
2021/10/30 18:23:51;;;;;;;5.63;2.90;;;13.30;99.90;;;;;;4915686;29;20206;-73
2021/10/30 18:26:19;;;;;;;6.17;3.00;;;13.20;99.90;;;;;;4916056;29;20210;-73
2021/10/30 18:28:46;;;;;;;5.87;2.80;;;13.10;99.90;;;;;;4916179;29;20216;-71
2021/10/30 18:31:13;;;;;;;6.30;2.73;;;13.10;99.90;;;;;;4916341;29;20712;-73
2021/10/30 18:33:39;;;;;;;6.00;2.63;;;13.00;99.90;;;;;;4916157;29;20697;-73
2021/10/30 18:36:08;;;;;;;4.47;2.37;;;13.00;99.90;;;;;;4915824;29;20234;-73
2021/10/30 18:38:34;;;;;;;5.17;2.50;;;13.00;99.90;;;;;;4915856;29;20213;-74
2021/10/30 18:41:02;;;;;;;4.60;2.57;;;13.20;99.90;;;;;;4915888;29;20233;-72
2021/10/30 18:43:29;;;;;;;8.17;3.57;;;13.20;99.90;;;;;;4915605;29;20239;-73
2021/10/30 18:45:55;;;;;;;5.13;2.23;;;13.20;99.90;;;;;;4915891;29;20253;-73
2021/10/30 18:48:22;;;;;;;5.43;2.63;;;13.20;99.90;;;;;;4915997;29;20685;-74
2021/10/30 18:50:49;;;;;;;5.20;2.50;;;13.20;99.90;;;;;;4915475;29;20344;-74
2021/10/30 18:53:18;;;;;;;3.17;2.07;;;13.20;99.90;;;;;;4916623;29;20205;-74
2021/10/30 18:55:44;;;;;;;3.63;1.90;;;13.10;99.90;;;;;;4916267;29;20491;-74
2021/10/30 18:58:11;;;;;;;4.10;1.83;;;12.90;99.90;;;;;;4916841;29;20209;-75
2021/10/30 19:00:39;;;;;;;4.17;2.00;;;12.90;99.90;;;;;;4915539;29;20225;-74
2021/10/30 19:03:06;;;;;;;4.40;2.10;;;13.00;99.90;;;;;;4915608;29;20663;-74
2021/10/30 19:05:33;;;;;;;5.43;2.13;;;13.10;99.90;;;;;;4915268;29;20209;-73
2021/10/30 19:08:00;;;;;;;4.07;1.77;;;13.20;99.90;;;;;;4915707;29;20206;-74
2021/10/30 19:10:29;;;;;;;2.90;1.33;;;13.10;99.90;;;;;;4912345;29;20241;-73
2021/10/30 19:12:56;;;;;;;4.90;2.07;;;12.90;99.90;;;;;;4915053;29;20662;-74
2021/10/30 19:15:26;;;;;;;2.97;1.63;;;12.90;99.90;;;;;;4915042;29;20238;-73
2021/10/30 19:17:54;;;;;;;2.73;1.50;;;13.00;99.90;;;;;;4911781;29;20702;-72
2021/10/30 19:20:21;;;;;;;3.47;1.70;;;12.90;99.90;;;;;;4915091;29;20213;-72
2021/10/30 19:22:48;;;;;;;3.63;1.77;;;12.80;99.90;;;;;;4916282;29;20237;-73
2021/10/30 19:25:15;;;;;;;2.70;1.63;;;12.80;99.90;;;;;;4915602;29;20254;-75
2021/10/30 19:27:43;;;;;;;6.03;2.00;;;12.80;99.90;;;;;;4915449;29;20213;-74
2021/10/30 19:30:12;;;;;;;4.53;1.90;;;12.90;99.90;;;;;;4915092;29;20201;-75
2021/10/30 19:32:39;;;;;;;2.80;1.67;;;13.00;99.90;;;;;;4915063;29;20236;-74
2021/10/30 19:35:06;;;;;;;3.33;1.70;;;13.00;99.90;;;;;;4914980;29;21198;-75
2021/10/30 19:37:33;;;;;;;3.03;1.87;;;13.10;99.90;;;;;;4915436;29;20239;-75
2021/10/30 19:40:00;;;;;;;3.43;1.90;;;13.00;99.90;;;;;;4915592;29;20214;-74
2021/10/30 19:42:27;;;;;;;2.83;1.40;;;13.00;99.90;;;;;;4914023;29;20225;-74
2021/10/30 19:44:56;;;;;;;3.43;1.90;;;13.00;99.90;;;;;;4915666;29;20214;-74
2021/10/30 19:47:22;;;;;;;5.90;1.80;;;13.00;99.90;;;;;;4915568;29;20220;-74
2021/10/30 19:49:49;;;;;;;4.33;1.83;;;13.00;99.90;;;;;;4918407;29;20217;-74
2021/10/30 19:52:16;;;;;;;4.17;2.80;;;13.10;99.90;;;;;;4918740;29;20230;-74
2021/10/30 19:54:43;;;;;;;8.00;2.40;;;13.10;99.90;;;;;;4917999;29;20206;-74
2021/10/30 19:57:11;;;;;;;2.37;1.80;;;13.10;99.90;;;;;;4918097;29;20838;-74
2021/10/30 19:59:38;;;;;;;3.50;2.10;;;13.10;99.90;;;;;;4918296;29;20244;-74
2021/10/30 20:02:06;;;;;;;3.33;1.80;;;13.10;99.90;;;;;;4918497;29;20240;-75
2021/10/30 20:04:33;;;;;;;3.27;1.90;;;13.10;99.90;;;;;;4918288;29;20227;-74
2021/10/30 20:07:00;;;;;;;2.87;1.63;;;13.00;99.90;;;;;;4918219;29;20210;-74
2021/10/30 20:09:27;;;;;;;3.53;1.77;;;13.00;99.90;;;;;;4918536;29;20212;-74
2021/10/30 20:11:54;;;;;;;2.17;1.40;;;12.90;99.90;;;;;;4916392;29;20597;-74
2021/10/30 20:14:21;;;;;;;2.30;1.40;;;13.00;99.90;;;;;;4916245;29;20205;-74
2021/10/30 20:16:49;;;;;;;2.87;1.43;;;12.90;99.90;;;;;;4918163;29;20241;-74
2021/10/30 20:19:19;;;;;;;4.73;1.80;;;12.90;99.90;;;;;;4918163;29;20659;-75
2021/10/30 20:21:46;;;;;;;2.97;1.63;;;12.90;99.90;;;;;;4917783;29;20233;-74
2021/10/30 20:24:13;;;;;;;2.43;1.50;;;12.90;99.90;;;;;;4918351;29;20313;-74
2021/10/30 20:26:40;;;;;;;4.20;1.50;;;12.90;99.90;;;;;;4913387;29;20297;-74
2021/10/30 20:29:09;;;;;;;2.83;1.53;;;12.80;99.90;;;;;;4917573;29;20312;-75
2021/10/30 20:31:36;;;;;;;4.00;1.40;;;12.80;99.90;;;;;;4917738;29;20240;-74
2021/10/30 20:34:03;;;;;;;2.57;1.43;;;12.80;99.90;;;;;;4917935;29;20682;-74
2021/10/30 20:36:33;;;;;;;2.30;1.43;;;12.90;99.90;;;;;;4917637;29;20229;-75
2021/10/30 20:39:02;;;;;;;2.20;1.50;;;12.80;99.90;;;;;;4915322;29;20243;-74
2021/10/30 20:41:33;;;;;;;2.70;1.23;;;12.80;99.90;;;;;;4917733;29;20774;-74
2021/10/30 20:44:01;;;;;;;2.00;1.30;;;12.80;99.90;;;;;;4916614;29;20215;-74
2021/10/30 20:46:30;;;;;;;2.67;1.10;;;12.80;99.90;;;;;;4917813;29;20677;-74
2021/10/30 20:48:57;;;;;;;2.40;1.27;;;12.80;99.90;;;;;;4917242;29;20257;-75
2021/10/30 20:51:24;;;;;;;5.17;1.33;;;12.70;99.90;;;;;;4917225;29;20225;-75
2021/10/30 20:53:52;;;;;;;1.90;1.17;;;12.70;99.90;;;;;;4917228;29;20220;-75
2021/10/30 20:56:20;;;;;;;3.33;1.13;;;12.70;99.90;;;;;;4917065;29;20202;-75
2021/10/30 20:58:47;;;;;;;2.57;1.10;;;12.70;99.90;;;;;;4917459;29;20205;-74
2021/10/30 21:01:14;;;;;;;3.77;1.17;;;12.60;99.90;;;;;;4916978;29;20229;-75
2021/10/30 21:03:41;;;;;;;1.73;0.90;;;12.70;99.90;;;;;;4914503;29;20689;-74
2021/10/30 21:06:08;;;;;;;5.07;1.40;;;12.60;99.90;;;;;;4917383;29;20206;-73
2021/10/30 21:08:35;;;;;;;2.60;1.20;;;12.60;99.90;;;;;;4912143;29;20213;-75
2021/10/30 21:11:06;;;;;;;2.57;1.23;;;12.50;99.90;;;;;;4916543;29;20233;-74
2021/10/30 21:13:33;;;;;;;3.50;1.10;;;12.50;99.90;;;;;;4916587;29;20202;-75
2021/10/30 21:16:00;;;;;;;4.00;1.47;;;12.60;99.90;;;;;;4916779;29;20217;-75
2021/10/30 21:18:27;;;;;;;2.93;1.30;;;12.60;99.90;;;;;;4916761;29;20237;-73
2021/10/30 21:20:54;;;;;;;3.77;1.20;;;12.70;99.90;;;;;;4916594;29;20785;-74
2021/10/30 21:23:23;;;;;;;2.60;1.10;;;12.60;99.90;;;;;;4916851;29;20213;-74
2021/10/30 21:25:49;;;;;;;1.63;1.10;;;12.60;99.90;;;;;;4914090;29;20300;-75
2021/10/30 21:28:18;;;;;;;1.77;1.30;;;12.70;99.90;;;;;;4910249;29;20300;-74
2021/10/30 21:30:44;;;;;;;2.37;1.10;;;12.70;99.90;;;;;;4912527;29;20699;-74
2021/10/30 21:33:11;;;;;;;2.30;1.20;;;12.70;99.90;;;;;;4916018;29;20213;-74
2021/10/30 21:35:38;;;;;;;2.73;1.23;;;12.70;99.90;;;;;;4916823;29;20248;-75
2021/10/30 21:38:05;;;;;;;2.47;1.07;;;12.70;99.90;;;;;;4912492;29;20252;-74
2021/10/30 21:40:32;;;;;;;3.20;1.33;;;12.60;99.90;;;;;;4916024;29;20235;-74
2021/10/30 21:42:59;;;;;;;5.20;1.30;;;12.50;99.90;;;;;;4911053;29;20210;-74
